Terminal Aerodrome Forecast
Issued by NWS Wilmington, NC

Current Version | Previous Version | Text Only | Print | Product List | Glossary On
Versions: 1 2 3 4 5 6 7 8 9 10 11 12 13 14 15 16 17 18 19
712
FTUS42 KILM 212349 CCA
TAFLBT
TAF COR
KLBT 212349Z 2200/2224 23002KT P6SM SCT150
     FM221400 23008KT P6SM SCT045
     FM222200 20009KT P6SM VCTS FEW035CB BKN050=

USA.gov is the U.S. government's official web portal to all federal, state and local government web resources and services.